createdAt,value
2023-04-16T00:00:42.804Z,8.30
2023-04-16T00:03:09.300Z,8.37
2023-04-16T00:05:35.760Z,7.87
2023-04-16T00:08:02.416Z,9.00
2023-04-16T00:10:28.715Z,8.67
2023-04-16T00:12:54.994Z,8.23
2023-04-16T00:15:21.244Z,8.30
2023-04-16T00:17:47.820Z,8.70
2023-04-16T00:20:14.205Z,9.03
2023-04-16T00:22:40.480Z,8.63
2023-04-16T00:25:06.896Z,8.47
2023-04-16T00:27:33.193Z,8.90
2023-04-16T00:29:59.472Z,8.70
2023-04-16T00:32:25.779Z,8.60
2023-04-16T00:34:52.057Z,8.93
2023-04-16T00:37:18.442Z,8.63
2023-04-16T00:39:44.707Z,9.83
2023-04-16T00:42:11.277Z,9.00
2023-04-16T00:44:37.612Z,8.70
2023-04-16T00:47:04.099Z,8.90
2023-04-16T00:49:31.331Z,8.77
2023-04-16T00:51:57.595Z,9.27
2023-04-16T00:54:24.632Z,10.53
2023-04-16T00:56:51.163Z,9.50
2023-04-16T00:59:17.757Z,9.90
2023-04-16T01:01:43.981Z,10.03
2023-04-16T01:04:10.552Z,10.43
2023-04-16T01:06:36.884Z,10.17
2023-04-16T01:09:03.317Z,9.83
2023-04-16T01:11:29.671Z,9.70
2023-04-16T01:13:55.989Z,9.87
2023-04-16T01:16:22.461Z,9.67
2023-04-16T01:18:48.892Z,10.03
2023-04-16T01:21:15.319Z,10.13
2023-04-16T01:23:41.618Z,9.50
2023-04-16T01:26:07.888Z,10.13
2023-04-16T01:28:34.164Z,10.43
2023-04-16T01:31:00.712Z,10.07
2023-04-16T01:33:27.028Z,10.50
2023-04-16T01:35:53.250Z,10.50
2023-04-16T01:38:19.715Z,11.50
2023-04-16T01:40:46.032Z,10.73
2023-04-16T01:43:12.289Z,11.10
2023-04-16T01:45:38.516Z,11.53
2023-04-16T01:48:05.041Z,11.10
2023-04-16T01:50:31.531Z,11.13
2023-04-16T01:52:57.871Z,11.80
2023-04-16T01:55:24.221Z,12.40
2023-04-16T01:57:50.617Z,11.60
2023-04-16T02:00:16.921Z,11.87
2023-04-16T02:02:43.293Z,11.77
2023-04-16T02:05:09.628Z,11.33
2023-04-16T02:07:36.184Z,12.47
2023-04-16T02:10:02.608Z,12.03
2023-04-16T02:12:29.542Z,12.80
2023-04-16T02:14:55.812Z,12.80
2023-04-16T02:17:22.160Z,12.70
2023-04-16T02:19:48.752Z,11.63
2023-04-16T02:22:15.334Z,12.53
2023-04-16T02:24:41.822Z,13.60
2023-04-16T02:27:08.099Z,12.87
2023-04-16T02:29:34.522Z,12.97
2023-04-16T02:32:00.928Z,12.83
2023-04-16T02:34:27.189Z,12.97
2023-04-16T02:36:54.959Z,13.50
2023-04-16T02:39:21.403Z,13.80
2023-04-16T02:41:47.694Z,14.23
2023-04-16T02:44:13.990Z,13.90
2023-04-16T02:46:40.431Z,13.27
2023-04-16T02:49:06.822Z,14.47
2023-04-16T02:51:33.241Z,15.27
2023-04-16T02:53:59.549Z,14.50
2023-04-16T02:56:26.206Z,14.30
2023-04-16T02:58:52.752Z,14.23
2023-04-16T03:01:19.100Z,14.00
2023-04-16T03:03:45.589Z,14.80
2023-04-16T03:06:12.688Z,14.50
2023-04-16T03:08:39.033Z,14.53
2023-04-16T03:11:05.310Z,15.07
2023-04-16T03:13:31.586Z,13.93
2023-04-16T03:15:57.987Z,14.53
2023-04-16T03:18:24.461Z,14.50
2023-04-16T03:20:53.966Z,15.17
2023-04-16T03:23:20.505Z,15.10
2023-04-16T03:25:47.989Z,14.93
2023-04-16T03:28:14.874Z,14.70
2023-04-16T03:30:41.148Z,15.53
2023-04-16T03:33:07.414Z,15.20
2023-04-16T03:35:33.750Z,15.67
2023-04-16T03:38:00.010Z,15.33
2023-04-16T03:40:26.297Z,15.80
2023-04-16T03:42:52.571Z,15.17
2023-04-16T03:45:18.879Z,15.97
2023-04-16T03:47:48.454Z,15.60
2023-04-16T03:50:14.744Z,16.43
2023-04-16T03:52:41.210Z,16.77
2023-04-16T03:55:07.706Z,17.70
2023-04-16T03:57:36.971Z,17.10
2023-04-16T04:00:03.465Z,16.33
2023-04-16T04:02:29.980Z,17.23
2023-04-16T04:04:56.371Z,18.10
2023-04-16T04:07:22.679Z,16.57
2023-04-16T04:09:48.953Z,17.67
2023-04-16T04:12:15.264Z,17.90
2023-04-16T04:14:41.748Z,17.03
2023-04-16T04:17:08.378Z,17.43
2023-04-16T04:19:34.684Z,18.27
2023-04-16T04:22:00.955Z,17.83
2023-04-16T04:24:27.278Z,18.00
2023-04-16T04:26:53.578Z,18.60
2023-04-16T04:29:19.856Z,18.10
2023-04-16T04:31:46.157Z,18.17
2023-04-16T04:34:12.459Z,20.43
2023-04-16T04:36:38.710Z,19.23
2023-04-16T04:39:04.986Z,19.33
2023-04-16T04:41:31.353Z,18.97
2023-04-16T04:43:57.605Z,20.13
2023-04-16T04:46:23.915Z,20.07
2023-04-16T04:48:50.483Z,18.93
2023-04-16T04:51:16.770Z,19.53
2023-04-16T04:53:43.135Z,19.60
2023-04-16T04:56:12.706Z,19.97
2023-04-16T04:58:39.734Z,19.67
2023-04-16T05:01:06.090Z,19.53
2023-04-16T05:03:32.508Z,20.53
2023-04-16T05:05:58.888Z,19.33
2023-04-16T05:08:25.185Z,18.63
2023-04-16T05:10:51.564Z,19.10
2023-04-16T05:13:17.864Z,18.63
2023-04-16T05:15:45.652Z,19.10
2023-04-16T05:18:11.901Z,18.60
2023-04-16T05:20:38.233Z,19.03
2023-04-16T05:23:04.449Z,18.83
2023-04-16T05:25:30.827Z,18.43
2023-04-16T05:27:57.094Z,18.43
2023-04-16T05:30:23.332Z,17.80
2023-04-16T05:32:49.732Z,17.13
2023-04-16T05:35:17.538Z,18.27
2023-04-16T05:37:44.113Z,17.23
2023-04-16T05:40:12.079Z,18.00
2023-04-16T05:42:38.321Z,18.17
2023-04-16T05:45:04.918Z,20.07
2023-04-16T05:47:31.268Z,17.57
2023-04-16T05:49:57.562Z,17.73
2023-04-16T05:52:23.868Z,17.47
2023-04-16T05:54:50.227Z,16.47
2023-04-16T05:57:16.521Z,17.20
2023-04-16T05:59:43.007Z,17.23
2023-04-16T06:02:09.469Z,17.63
2023-04-16T06:04:35.925Z,17.50
2023-04-16T06:07:02.232Z,18.53
2023-04-16T06:09:28.596Z,18.53
2023-04-16T06:11:55.362Z,17.57
2023-04-16T06:14:21.697Z,18.07
2023-04-16T06:16:48.020Z,18.80
2023-04-16T06:19:14.447Z,17.93
2023-04-16T06:21:40.752Z,17.60
2023-04-16T06:24:07.010Z,16.23
2023-04-16T06:26:33.273Z,16.67
2023-04-16T06:28:59.589Z,16.57
2023-04-16T06:31:26.246Z,17.50
2023-04-16T06:33:52.514Z,16.33
2023-04-16T06:36:18.852Z,16.73
2023-04-16T06:38:45.212Z,17.33
2023-04-16T06:41:11.598Z,16.03
2023-04-16T06:43:37.844Z,16.07
2023-04-16T06:46:04.217Z,16.03
2023-04-16T06:48:30.550Z,16.87
2023-04-16T06:50:56.855Z,27.53
2023-04-16T06:53:23.366Z,18.73
2023-04-16T06:55:49.681Z,16.23
2023-04-16T06:58:15.947Z,16.30
2023-04-16T07:00:42.235Z,17.27
2023-04-16T07:03:08.677Z,18.33
2023-04-16T07:05:35.140Z,17.70
2023-04-16T07:08:01.360Z,17.67
2023-04-16T07:10:27.623Z,18.13
2023-04-16T07:12:53.889Z,17.60
2023-04-16T07:15:20.139Z,20.60
2023-04-16T07:17:46.557Z,24.53
2023-04-16T07:20:12.894Z,17.93
2023-04-16T07:22:39.188Z,18.30
2023-04-16T07:25:05.725Z,18.23
2023-04-16T07:27:31.961Z,18.73
2023-04-16T07:29:58.235Z,18.10
2023-04-16T07:32:24.566Z,18.47
2023-04-16T07:34:51.016Z,19.00
2023-04-16T07:37:17.309Z,18.20
2023-04-16T07:39:43.621Z,21.87
2023-04-16T07:42:09.960Z,18.50
2023-04-16T07:44:36.276Z,19.83
2023-04-16T07:47:04.189Z,18.90
2023-04-16T07:49:31.944Z,18.93
2023-04-16T07:51:58.283Z,19.37
2023-04-16T07:54:24.534Z,19.53
2023-04-16T07:56:50.935Z,18.67
2023-04-16T07:59:23.039Z,18.47
2023-04-16T08:01:53.123Z,18.27
2023-04-16T08:04:24.569Z,19.10
2023-04-16T08:06:51.609Z,18.90
2023-04-16T08:09:18.845Z,24.70
2023-04-16T08:11:45.144Z,18.33
2023-04-16T08:14:11.441Z,18.30
2023-04-16T08:16:38.752Z,17.50
2023-04-16T08:19:06.382Z,19.77
2023-04-16T08:21:33.229Z,18.70
2023-04-16T08:23:59.564Z,18.17
2023-04-16T08:26:26.299Z,17.77
2023-04-16T08:28:52.558Z,17.17
2023-04-16T08:31:18.909Z,18.23
2023-04-16T08:33:45.192Z,18.23
2023-04-16T08:36:11.488Z,18.17
2023-04-16T08:38:37.744Z,16.83
2023-04-16T08:41:05.893Z,16.93
2023-04-16T08:43:37.127Z,19.77
2023-04-16T08:46:04.637Z,16.93
2023-04-16T08:48:33.427Z,16.70
2023-04-16T08:51:00.475Z,16.67
2023-04-16T08:53:35.604Z,17.07
2023-04-16T08:56:03.776Z,23.17
2023-04-16T08:58:31.826Z,24.53
2023-04-16T09:00:58.173Z,41.10
2023-04-16T09:03:24.615Z,33.80
2023-04-16T09:05:51.458Z,35.30
2023-04-16T09:08:18.110Z,35.80
2023-04-16T09:10:44.428Z,40.07
2023-04-16T09:13:11.640Z,37.00
2023-04-16T09:15:38.457Z,37.77
2023-04-16T09:18:04.829Z,37.37
2023-04-16T09:20:31.146Z,38.37
2023-04-16T09:22:57.474Z,36.93
2023-04-16T09:25:24.766Z,35.90
2023-04-16T09:27:51.245Z,36.80
2023-04-16T09:30:21.930Z,35.30
2023-04-16T09:32:48.660Z,35.30
2023-04-16T09:35:15.764Z,34.60
2023-04-16T09:37:42.047Z,36.20
2023-04-16T09:40:08.627Z,37.50
2023-04-16T09:42:36.167Z,37.73
2023-04-16T09:45:04.910Z,52.67
2023-04-16T09:47:39.791Z,35.27
2023-04-16T09:50:06.648Z,32.33
2023-04-16T09:52:36.096Z,31.00
2023-04-16T09:55:02.401Z,31.33
2023-04-16T09:57:29.337Z,29.10
2023-04-16T10:00:01.001Z,30.07
2023-04-16T10:02:28.139Z,28.40
2023-04-16T10:04:54.947Z,28.90
2023-04-16T10:07:21.530Z,27.40
2023-04-16T10:09:48.811Z,27.40
2023-04-16T10:12:15.945Z,27.60
2023-04-16T10:14:42.325Z,24.90
2023-04-16T10:17:09.068Z,23.83
2023-04-16T10:19:35.721Z,23.00
2023-04-16T10:22:02.679Z,22.63
2023-04-16T10:24:33.146Z,21.30
2023-04-16T10:26:59.987Z,21.17
2023-04-16T10:29:27.846Z,22.03
2023-04-16T10:31:55.087Z,23.40
2023-04-16T10:34:21.657Z,26.73
2023-04-16T10:36:49.096Z,32.97
2023-04-16T10:39:17.824Z,28.23
2023-04-16T10:41:44.968Z,27.67
2023-04-16T10:44:11.277Z,27.53
2023-04-16T10:46:41.476Z,26.43
2023-04-16T10:49:19.055Z,26.40
2023-04-16T10:51:55.746Z,25.53
2023-04-16T10:54:26.654Z,25.23
2023-04-16T10:56:53.738Z,26.70
2023-04-16T10:59:20.896Z,28.00
2023-04-16T11:01:48.822Z,26.10
2023-04-16T11:04:21.244Z,25.73
2023-04-16T11:07:01.746Z,25.47
2023-04-16T11:09:46.913Z,25.23
2023-04-16T11:12:18.387Z,23.87
2023-04-16T11:14:49.105Z,22.93
2023-04-16T11:17:15.409Z,22.97
2023-04-16T11:19:42.600Z,23.37
2023-04-16T11:22:11.690Z,22.83
2023-04-16T11:24:40.409Z,23.33
2023-04-16T11:27:09.502Z,24.13
2023-04-16T11:29:35.948Z,23.53
2023-04-16T11:32:02.394Z,24.23
2023-04-16T11:34:29.165Z,23.37
2023-04-16T11:36:55.426Z,24.10
2023-04-16T11:39:21.682Z,22.87
2023-04-16T11:41:48.731Z,23.40
2023-04-16T11:44:22.339Z,23.47
2023-04-16T11:46:49.187Z,22.93
2023-04-16T11:49:17.450Z,22.43
2023-04-16T11:51:44.787Z,22.43
2023-04-16T11:54:18.268Z,21.83
2023-04-16T11:56:46.838Z,21.57
2023-04-16T11:59:14.203Z,20.97
2023-04-16T12:01:41.711Z,21.70
2023-04-16T12:04:08.865Z,21.10
2023-04-16T12:06:35.595Z,22.43
2023-04-16T12:09:21.845Z,21.53
2023-04-16T12:11:48.106Z,21.93
2023-04-16T12:14:14.484Z,24.33
2023-04-16T12:16:40.780Z,25.70
2023-04-16T12:19:10.469Z,23.47
2023-04-16T12:21:37.705Z,24.73
2023-04-16T12:24:04.394Z,24.23
2023-04-16T12:26:38.260Z,24.10
2023-04-16T12:29:21.442Z,24.90
2023-04-16T12:31:48.478Z,24.17
2023-04-16T12:34:15.291Z,25.03
2023-04-16T12:36:42.204Z,23.53
2023-04-16T12:39:10.645Z,23.63
2023-04-16T12:41:38.027Z,22.70
2023-04-16T12:44:05.054Z,22.50
2023-04-16T12:46:31.725Z,23.37
2023-04-16T12:48:58.342Z,22.77
2023-04-16T12:51:24.630Z,23.27
2023-04-16T12:53:50.958Z,23.03
2023-04-16T12:56:17.205Z,23.67
2023-04-16T12:58:43.421Z,22.67
2023-04-16T13:01:09.760Z,22.93
2023-04-16T13:03:37.266Z,22.33
2023-04-16T13:06:03.930Z,21.00
2023-04-16T13:08:30.634Z,22.70
2023-04-16T13:10:56.950Z,21.63
2023-04-16T13:13:23.341Z,22.17
2023-04-16T13:15:49.742Z,22.30
2023-04-16T13:18:16.057Z,21.20
2023-04-16T13:20:42.470Z,19.37
2023-04-16T13:23:08.689Z,19.40
2023-04-16T13:25:34.920Z,27.57
2023-04-16T13:28:01.219Z,19.83
2023-04-16T13:30:29.253Z,19.20
2023-04-16T13:32:58.594Z,19.77
2023-04-16T13:35:24.936Z,20.00
2023-04-16T13:37:51.241Z,19.33
2023-04-16T13:40:17.721Z,19.00
2023-04-16T13:42:44.079Z,18.90
2023-04-16T13:45:10.496Z,18.50
2023-04-16T13:47:37.083Z,18.93
2023-04-16T13:50:03.945Z,18.07
2023-04-16T13:52:30.244Z,18.17
2023-04-16T13:54:58.420Z,17.73
2023-04-16T13:57:27.009Z,18.73
2023-04-16T13:59:53.433Z,18.40
2023-04-16T14:02:20.474Z,17.83
2023-04-16T14:04:46.771Z,18.70
2023-04-16T14:07:13.109Z,19.03
2023-04-16T14:09:39.354Z,18.20
2023-04-16T14:12:05.763Z,18.07
2023-04-16T14:14:32.028Z,18.43
2023-04-16T14:16:58.872Z,18.10
2023-04-16T14:19:25.290Z,18.23
2023-04-16T14:21:51.693Z,18.13
2023-04-16T14:24:17.975Z,17.27
2023-04-16T14:26:44.332Z,17.07
2023-04-16T14:29:10.835Z,17.53
2023-04-16T14:31:37.341Z,17.53
2023-04-16T14:34:03.692Z,17.80
2023-04-16T14:36:30.984Z,16.63
2023-04-16T14:38:57.265Z,16.47
2023-04-16T14:41:23.645Z,16.87
2023-04-16T14:43:49.964Z,17.03
2023-04-16T14:46:17.676Z,15.97
2023-04-16T14:48:44.289Z,15.67
2023-04-16T14:51:10.884Z,15.87
2023-04-16T14:53:37.656Z,16.57
2023-04-16T14:56:04.495Z,16.70
2023-04-16T14:58:31.388Z,17.10
2023-04-16T15:00:58.242Z,16.20
2023-04-16T15:03:25.093Z,17.13
2023-04-16T15:05:55.672Z,16.07
2023-04-16T15:08:22.436Z,15.87
2023-04-16T15:10:48.779Z,15.43
2023-04-16T15:13:15.511Z,15.30
2023-04-16T15:15:41.990Z,13.70
2023-04-16T15:18:08.489Z,44.00
2023-04-16T15:20:34.810Z,13.17
2023-04-16T15:23:01.187Z,13.00
2023-04-16T15:25:27.555Z,14.23
2023-04-16T15:27:53.952Z,14.60
2023-04-16T15:30:20.648Z,14.97
2023-04-16T15:32:46.974Z,15.67
2023-04-16T15:35:13.340Z,15.60
2023-04-16T15:37:39.673Z,14.77
2023-04-16T15:40:08.593Z,15.13
2023-04-16T15:42:34.885Z,15.73
2023-04-16T15:45:01.323Z,16.33
2023-04-16T15:47:28.798Z,15.53
2023-04-16T15:49:55.336Z,16.90
2023-04-16T15:52:21.758Z,17.33
2023-04-16T15:54:48.815Z,17.53
2023-04-16T15:57:15.289Z,17.17
2023-04-16T15:59:41.609Z,22.03
2023-04-16T16:02:07.969Z,19.60
2023-04-16T16:04:34.430Z,17.47
2023-04-16T16:07:02.825Z,18.37
2023-04-16T16:09:29.246Z,18.77
2023-04-16T16:11:55.914Z,18.30
2023-04-16T16:14:22.312Z,18.53
2023-04-16T16:16:48.756Z,18.53
2023-04-16T16:19:15.144Z,19.27
2023-04-16T16:21:41.582Z,18.67
2023-04-16T16:24:07.896Z,18.37
2023-04-16T16:26:34.221Z,18.60
2023-04-16T16:29:01.375Z,18.37
2023-04-16T16:31:27.918Z,19.07
2023-04-16T16:33:54.523Z,19.23
2023-04-16T16:36:21.461Z,19.67
2023-04-16T16:38:47.720Z,18.67
2023-04-16T16:41:14.202Z,20.30
2023-04-16T16:43:40.532Z,20.67
2023-04-16T16:46:07.384Z,19.63
2023-04-16T16:48:33.660Z,19.47
2023-04-16T16:50:59.979Z,19.50
2023-04-16T16:53:27.160Z,20.03
2023-04-16T16:55:53.479Z,21.03
2023-04-16T16:58:19.727Z,20.63
2023-04-16T17:00:46.092Z,20.97
2023-04-16T17:03:12.562Z,36.77
2023-04-16T17:05:39.154Z,21.70
2023-04-16T17:08:06.583Z,20.83
2023-04-16T17:10:32.911Z,20.63
2023-04-16T17:12:59.215Z,20.83
2023-04-16T17:15:25.809Z,20.40
2023-04-16T17:17:52.172Z,20.83
2023-04-16T17:20:18.570Z,20.90
2023-04-16T17:22:44.833Z,20.77
2023-04-16T17:25:11.589Z,20.47
2023-04-16T17:27:37.836Z,21.73
2023-04-16T17:30:05.389Z,22.57
2023-04-16T17:32:32.673Z,21.50
2023-04-16T17:35:00.364Z,21.00
2023-04-16T17:37:29.307Z,26.30
2023-04-16T17:39:55.962Z,23.70
2023-04-16T17:42:22.770Z,23.00
2023-04-16T17:44:49.058Z,23.37
2023-04-16T17:47:15.491Z,22.57
2023-04-16T17:49:41.912Z,22.23
2023-04-16T17:52:08.260Z,23.00
2023-04-16T17:54:34.571Z,22.50
2023-04-16T17:57:01.784Z,22.73
2023-04-16T17:59:28.079Z,22.63
2023-04-16T18:01:55.617Z,23.20
2023-04-16T18:04:22.149Z,22.83
2023-04-16T18:06:48.657Z,23.83
2023-04-16T18:09:15.403Z,23.73
2023-04-16T18:11:41.661Z,25.07
2023-04-16T18:14:09.933Z,25.33
2023-04-16T18:16:37.522Z,24.73
2023-04-16T18:19:03.870Z,25.63
2023-04-16T18:21:30.402Z,25.10
2023-04-16T18:23:56.902Z,26.10
2023-04-16T18:26:23.333Z,25.97
2023-04-16T18:28:49.610Z,25.47
2023-04-16T18:31:18.978Z,25.83
2023-04-16T18:33:56.248Z,47.83
2023-04-16T18:36:24.461Z,29.63
2023-04-16T18:39:00.919Z,26.03
2023-04-16T18:41:27.695Z,25.63
2023-04-16T18:43:54.490Z,25.37
2023-04-16T18:46:20.842Z,24.60
2023-04-16T18:48:47.179Z,25.63
2023-04-16T18:51:15.460Z,25.20
2023-04-16T18:53:44.062Z,24.53
2023-04-16T18:56:10.342Z,26.37
2023-04-16T18:58:36.737Z,25.73
2023-04-16T19:01:03.653Z,24.97
2023-04-16T19:03:30.918Z,25.57
2023-04-16T19:05:57.345Z,25.27
2023-04-16T19:08:23.715Z,24.73
2023-04-16T19:10:50.334Z,25.63
2023-04-16T19:13:16.697Z,25.80
2023-04-16T19:15:43.085Z,24.80
2023-04-16T19:18:09.609Z,24.90
2023-04-16T19:20:36.473Z,24.60
2023-04-16T19:23:05.910Z,23.73
2023-04-16T19:25:32.546Z,23.70
2023-04-16T19:27:58.871Z,23.20
2023-04-16T19:30:26.743Z,23.40
2023-04-16T19:32:55.115Z,25.10
2023-04-16T19:35:21.884Z,23.30
2023-04-16T19:37:49.142Z,22.60
2023-04-16T19:40:15.400Z,22.20
2023-04-16T19:42:42.674Z,22.47
2023-04-16T19:45:09.014Z,22.50
2023-04-16T19:47:35.536Z,22.07
2023-04-16T19:50:01.917Z,22.07
2023-04-16T19:52:28.170Z,22.63
2023-04-16T19:54:54.563Z,22.47
2023-04-16T19:57:20.879Z,22.47
2023-04-16T19:59:47.130Z,23.33
2023-04-16T20:02:13.451Z,22.90
2023-04-16T20:04:39.708Z,22.53
2023-04-16T20:07:06.337Z,22.90
2023-04-16T20:09:32.666Z,22.93
2023-04-16T20:11:58.961Z,22.27
2023-04-16T20:14:25.245Z,22.37
2023-04-16T20:16:52.208Z,22.90
2023-04-16T20:19:19.454Z,23.40
2023-04-16T20:21:46.005Z,22.77
2023-04-16T20:24:12.475Z,22.83
2023-04-16T20:26:38.790Z,22.70
2023-04-16T20:29:05.075Z,22.30
2023-04-16T20:31:31.414Z,21.93
2023-04-16T20:33:57.797Z,22.03
2023-04-16T20:36:24.042Z,22.73
2023-04-16T20:38:53.792Z,22.27
2023-04-16T20:41:21.097Z,22.30
2023-04-16T20:43:49.995Z,23.93
2023-04-16T20:46:17.452Z,22.67
2023-04-16T20:48:43.955Z,22.83
2023-04-16T20:51:10.196Z,22.87
2023-04-16T20:53:39.321Z,22.57
2023-04-16T20:56:06.814Z,22.47
2023-04-16T20:58:33.145Z,22.87
2023-04-16T21:00:59.516Z,22.50
2023-04-16T21:03:26.136Z,23.17
2023-04-16T21:05:54.142Z,23.33
2023-04-16T21:08:20.917Z,22.73
2023-04-16T21:10:47.259Z,23.13
2023-04-16T21:13:13.705Z,23.30
2023-04-16T21:15:40.768Z,22.13
2023-04-16T21:18:07.512Z,21.83
2023-04-16T21:20:34.146Z,22.93
2023-04-16T21:23:00.917Z,23.57
2023-04-16T21:25:27.278Z,23.43
2023-04-16T21:27:53.593Z,23.30
2023-04-16T21:30:19.932Z,23.47
2023-04-16T21:32:46.503Z,23.40
2023-04-16T21:35:13.189Z,23.20
2023-04-16T21:37:39.453Z,23.53
2023-04-16T21:40:06.335Z,23.77
2023-04-16T21:42:39.644Z,23.10
2023-04-16T21:45:07.371Z,21.87
2023-04-16T21:47:33.686Z,22.90
2023-04-16T21:49:59.994Z,23.33
2023-04-16T21:52:26.381Z,22.33
2023-04-16T21:54:52.699Z,21.37
2023-04-16T21:57:19.012Z,21.40
2023-04-16T21:59:45.347Z,22.77
2023-04-16T22:02:11.950Z,22.53
2023-04-16T22:04:38.984Z,22.10
2023-04-16T22:07:11.615Z,23.37
2023-04-16T22:09:38.476Z,23.23
2023-04-16T22:12:06.898Z,22.90
2023-04-16T22:14:36.139Z,23.20
2023-04-16T22:17:03.413Z,23.30
2023-04-16T22:19:29.794Z,23.57
2023-04-16T22:21:56.314Z,23.27
2023-04-16T22:24:22.986Z,23.33
2023-04-16T22:26:49.221Z,24.13
2023-04-16T22:29:15.660Z,23.30
2023-04-16T22:31:41.962Z,24.13
2023-04-16T22:34:08.681Z,23.27
2023-04-16T22:36:34.906Z,24.03
2023-04-16T22:39:01.168Z,24.30
2023-04-16T22:41:27.421Z,23.83
2023-04-16T22:43:53.703Z,25.13
2023-04-16T22:46:20.062Z,24.53
2023-04-16T22:48:46.375Z,24.57
2023-04-16T22:51:12.677Z,24.60
2023-04-16T22:53:38.894Z,25.60
2023-04-16T22:56:05.327Z,27.00
2023-04-16T22:58:31.686Z,27.40
2023-04-16T23:00:59.488Z,28.47
2023-04-16T23:03:26.032Z,30.03
2023-04-16T23:05:52.391Z,29.80
2023-04-16T23:08:18.645Z,31.27
2023-04-16T23:10:44.979Z,30.93
2023-04-16T23:13:11.294Z,30.93
2023-04-16T23:15:37.705Z,30.10
2023-04-16T23:18:04.051Z,31.03
2023-04-16T23:20:30.456Z,32.33
2023-04-16T23:22:56.753Z,34.73
2023-04-16T23:25:23.530Z,34.73
2023-04-16T23:27:49.868Z,36.67
2023-04-16T23:30:16.508Z,36.30
2023-04-16T23:32:42.816Z,36.53
2023-04-16T23:35:09.310Z,36.67
2023-04-16T23:37:35.619Z,37.17
2023-04-16T23:40:02.163Z,37.63
2023-04-16T23:42:28.489Z,38.10
2023-04-16T23:44:54.832Z,38.47
2023-04-16T23:47:21.165Z,39.33
2023-04-16T23:49:50.016Z,38.43
2023-04-16T23:52:16.322Z,40.43
2023-04-16T23:54:42.584Z,38.20
2023-04-16T23:57:09.046Z,39.50
2023-04-16T23:59:35.383Z,40.63
